Airfield :
LOGIN :

Register | Disclaimer

   EN    FR    IT 

 










Legend :    VFR   Marginal VFR   IFR   Intensive IFR   Very Intensive IFR
Visi :
Ceiling :
>= 8 km
>= 3000ft
5 to 8 km
1000 to 3000 ft
1500m to 5 km
500 to 1000 ft
800 to 1500m
200 to 500 ft
< 800m
< 200 ft
Symbols :   Thunderstorms  Fog  Heavy snow  Heavy precipitations  Wind > 20 kt
SIGMETs :     Misc.  Thunderstorms  Icing  Turbulence  Mountain Waves  Volcanic Ashes







- Airport Elevation : 681 ft
- IATA code : LBA
- Download approach charts


EGNM - Leeds Bradford

CURRENT METAR :
  • 192150Z 23012KT 190V260 9999 FEW020 SCT026 18/14 Q1017

EXPIRED METARs :
  • 192120Z 23010KT 9999 SCT019 18/14 Q1018
  • 192050Z 23012KT 190V270 9999 SCT019 18/14 Q1018
  • 192020Z 21008KT 170V240 9999 FEW020 18/14 Q1018
  • 191950Z 23010KT 190V260 9999 FEW020 19/14 Q1018
  • 191920Z 22012KT 190V270 9999 FEW020 19/14 Q1018

TAF TAF EGNM
Valid from the 19 at 18:00 until the 20 at 18:00 UTC


191656Z 1918/2018 23010KT 9999 SCT020
PROB30
TEMPO 1920/2006 25016G26KT BKN010
TEMPO 2006/2013 6000 -DZ BKN010
PROB30
TEMPO 2006/2013 25016G26KT 3000 RADZ BR BKN005
BECMG 2013/2016 29012KT
ATIS : +44 113 250 9696 (x2489)
No reported NOTAMs for that airfield.



MET'MAP, your aeronautical weather chart ! - Copyright ORBIFLY December 2007 - Disclaimer

ORBIFLY MET'MAP TEAM :

Programming & Development : Alexandra Zaïnal
Concept & Development : Baudouin d'Aumeries
Co-Development & Prog : Marc-Olivier Méhu
Technical & hardware support : Manuel Goepfert

Contact : metmap@orbifly.com




SOURCES & CREDITS :

   NOAA